createdAt,value
2024-05-09T00:00:47.833Z,2.70
2024-05-09T00:03:15.923Z,3.00
2024-05-09T00:05:44.898Z,3.17
2024-05-09T00:08:13.140Z,2.60
2024-05-09T00:10:41.684Z,2.85
2024-05-09T00:13:11.103Z,2.42
2024-05-09T00:15:39.689Z,2.50
2024-05-09T00:18:08.554Z,3.10
2024-05-09T00:20:40.018Z,3.90
2024-05-09T00:23:14.059Z,4.30
2024-05-09T00:25:45.748Z,3.45
2024-05-09T00:28:14.532Z,3.33
2024-05-09T00:30:42.471Z,3.08
2024-05-09T00:33:11.430Z,2.75
2024-05-09T00:35:40.416Z,3.10
2024-05-09T00:38:08.536Z,3.17
2024-05-09T00:40:42.301Z,2.88
2024-05-09T00:43:14.308Z,2.92
2024-05-09T00:45:43.624Z,2.05
2024-05-09T00:48:15.367Z,1.90
2024-05-09T00:53:16.324Z,1.50
2024-05-09T00:55:45.167Z,1.70
2024-05-09T00:58:17.012Z,3.20
2024-05-09T01:00:45.638Z,4.07
2024-05-09T01:03:14.437Z,4.05
2024-05-09T01:05:45.952Z,3.28
2024-05-09T01:08:14.278Z,3.00
2024-05-09T01:10:45.107Z,3.20
2024-05-09T01:13:14.949Z,2.25
2024-05-09T01:15:43.627Z,2.47
2024-05-09T01:18:13.688Z,2.65
2024-05-09T01:20:44.592Z,2.40
2024-05-09T01:23:17.126Z,2.33
2024-05-09T01:25:46.754Z,1.70
2024-05-09T01:28:15.444Z,1.70
2024-05-09T01:30:43.384Z,2.42
2024-05-09T01:33:12.514Z,3.15
2024-05-09T01:35:42.459Z,2.83
2024-05-09T01:38:14.400Z,3.65
2024-05-09T01:40:42.410Z,3.53
2024-05-09T01:43:11.641Z,3.42
2024-05-09T01:45:41.278Z,3.50
2024-05-09T01:48:10.801Z,3.70
2024-05-09T01:50:41.957Z,3.33
2024-05-09T01:53:12.735Z,3.95
2024-05-09T01:55:41.346Z,3.13
2024-05-09T01:58:09.876Z,2.45
2024-05-09T02:00:41.385Z,3.42
2024-05-09T02:03:16.981Z,2.90
2024-05-09T02:05:47.996Z,3.28
2024-05-09T02:08:22.156Z,3.92
2024-05-09T02:10:51.093Z,3.38
2024-05-09T02:13:19.327Z,3.10
2024-05-09T02:15:47.201Z,3.13
2024-05-09T02:18:15.443Z,2.90
2024-05-09T02:20:44.242Z,2.92
2024-05-09T02:23:12.850Z,3.28
2024-05-09T02:25:42.059Z,3.00
2024-05-09T02:28:10.212Z,3.05
2024-05-09T02:30:41.062Z,2.97
2024-05-09T02:33:13.005Z,2.70
2024-05-09T02:35:43.634Z,2.70
2024-05-09T02:38:13.224Z,2.70
2024-05-09T02:40:41.505Z,3.15
2024-05-09T02:43:11.276Z,2.40
2024-05-09T02:45:40.771Z,3.38
2024-05-09T02:48:13.288Z,2.33
2024-05-09T02:50:42.195Z,2.80
2024-05-09T02:53:10.642Z,2.72
2024-05-09T02:55:42.941Z,2.85
2024-05-09T02:58:11.775Z,3.83
2024-05-09T03:00:42.142Z,2.78
2024-05-09T03:03:14.092Z,2.80
2024-05-09T03:05:45.084Z,2.67
2024-05-09T03:08:13.511Z,2.83
2024-05-09T03:10:41.454Z,3.40
2024-05-09T03:13:13.079Z,2.60
2024-05-09T03:15:42.325Z,3.25
2024-05-09T03:18:10.397Z,2.63
2024-05-09T03:20:39.789Z,2.70
2024-05-09T03:23:09.784Z,2.70
2024-05-09T03:25:39.247Z,2.30
2024-05-09T03:28:07.723Z,2.40
2024-05-09T03:30:41.081Z,2.58
2024-05-09T03:33:19.772Z,3.08
2024-05-09T03:35:49.737Z,2.38
2024-05-09T03:38:18.004Z,2.40
2024-05-09T03:40:47.749Z,2.53
2024-05-09T03:43:16.586Z,3.25
2024-05-09T03:45:45.318Z,2.22
2024-05-09T03:48:13.808Z,2.10
2024-05-09T03:50:42.121Z,2.17
2024-05-09T03:53:14.444Z,2.40
2024-05-09T03:55:42.658Z,2.28
2024-05-09T03:58:13.194Z,2.40
2024-05-09T04:00:42.723Z,2.67
2024-05-09T04:03:12.712Z,2.33
2024-05-09T04:05:43.397Z,3.10
2024-05-09T04:08:12.029Z,2.08
2024-05-09T04:10:39.951Z,2.78
2024-05-09T04:13:07.940Z,2.78
2024-05-09T04:15:35.992Z,2.65
2024-05-09T04:18:04.146Z,3.00
2024-05-09T04:20:38.054Z,3.63
2024-05-09T04:23:12.423Z,2.85
2024-05-09T04:25:45.682Z,3.22
2024-05-09T04:28:14.670Z,2.58
2024-05-09T04:30:43.263Z,3.22
2024-05-09T04:33:13.785Z,3.35
2024-05-09T04:35:45.804Z,3.05
2024-05-09T04:38:15.106Z,3.22
2024-05-09T04:40:43.625Z,3.45
2024-05-09T04:43:19.997Z,3.53
2024-05-09T04:45:48.117Z,3.28
2024-05-09T04:48:17.109Z,3.28
2024-05-09T04:50:45.277Z,3.30
2024-05-09T04:53:17.364Z,2.63
2024-05-09T04:55:46.063Z,3.60
2024-05-09T04:58:14.040Z,2.80
2024-05-09T05:00:42.086Z,2.67
2024-05-09T05:03:14.499Z,2.85
2024-05-09T05:08:14.432Z,3.10
2024-05-09T05:10:43.618Z,2.97
2024-05-09T05:13:25.194Z,3.30
2024-05-09T05:15:57.760Z,3.00
2024-05-09T05:18:30.146Z,2.88
2024-05-09T05:20:59.251Z,3.45
2024-05-09T05:23:27.228Z,3.72
2024-05-09T05:25:55.926Z,3.00
2024-05-09T05:28:24.038Z,2.97
2024-05-09T05:30:51.975Z,3.10
2024-05-09T05:33:20.433Z,2.72
2024-05-09T05:35:48.790Z,3.00
2024-05-09T05:38:16.772Z,3.50
2024-05-09T05:40:44.759Z,2.95
2024-05-09T05:43:24.426Z,3.15
2024-05-09T05:45:52.397Z,2.90
2024-05-09T05:48:20.734Z,3.50
2024-05-09T05:50:48.791Z,3.08
2024-05-09T05:53:16.748Z,2.88
2024-05-09T05:55:44.740Z,2.90
2024-05-09T05:58:14.987Z,2.28
2024-05-09T06:00:43.434Z,2.50
2024-05-09T06:03:13.982Z,2.90
2024-05-09T06:05:47.164Z,3.05
2024-05-09T06:08:15.342Z,3.67
2024-05-09T06:10:43.247Z,3.92
2024-05-09T06:13:11.851Z,3.22
2024-05-09T06:15:41.646Z,3.47
2024-05-09T06:18:11.693Z,3.50
2024-05-09T06:20:43.120Z,3.13
2024-05-09T06:23:12.857Z,3.42
2024-05-09T06:25:42.658Z,3.22
2024-05-09T06:28:11.018Z,3.58
2024-05-09T06:30:42.575Z,2.58
2024-05-09T06:33:14.130Z,2.40
2024-05-09T06:35:44.377Z,2.63
2024-05-09T06:38:12.795Z,2.22
2024-05-09T06:40:43.224Z,1.50
2024-05-09T06:43:17.882Z,1.80
2024-05-09T06:45:48.845Z,1.60
2024-05-09T06:48:20.312Z,1.50
2024-05-09T06:50:49.256Z,1.38
2024-05-09T06:53:18.223Z,1.20
2024-05-09T06:55:46.346Z,1.45
2024-05-09T06:58:14.312Z,1.45
2024-05-09T07:00:42.571Z,2.00
2024-05-09T07:03:13.048Z,1.55
2024-05-09T07:05:43.608Z,2.17
2024-05-09T07:08:11.894Z,2.50
2024-05-09T07:10:39.876Z,2.42
2024-05-09T07:13:11.692Z,2.15
2024-05-09T07:15:40.598Z,2.92
2024-05-09T07:18:13.019Z,2.45
2024-05-09T07:20:42.216Z,2.60
2024-05-09T07:23:11.286Z,2.50
2024-05-09T07:25:40.545Z,2.85
2024-05-09T07:28:15.864Z,2.70
2024-05-09T07:30:44.815Z,2.78
2024-05-09T07:33:24.029Z,2.53
2024-05-09T07:35:53.310Z,2.75
2024-05-09T07:38:21.599Z,3.88
2024-05-09T07:40:50.327Z,3.15
2024-05-09T07:43:18.303Z,3.17
2024-05-09T07:45:52.580Z,4.38
2024-05-09T07:50:00.369Z,3.10
2024-05-09T07:53:49.458Z,3.38
2024-05-09T07:56:22.559Z,3.30
2024-05-09T07:58:53.207Z,3.80
2024-05-09T08:01:21.488Z,2.97
2024-05-09T08:03:50.160Z,2.78
2024-05-09T08:06:18.366Z,3.70
2024-05-09T08:08:49.659Z,3.65
2024-05-09T08:11:17.957Z,4.07
2024-05-09T08:13:45.888Z,3.58
2024-05-09T08:16:15.392Z,3.50
2024-05-09T08:18:43.825Z,2.97
2024-05-09T08:21:11.676Z,3.08
2024-05-09T08:23:39.481Z,3.53
2024-05-09T08:26:07.844Z,3.47
2024-05-09T08:28:35.640Z,2.67
2024-05-09T08:31:06.135Z,3.08
2024-05-09T08:33:35.553Z,3.20
2024-05-09T08:36:03.733Z,3.42
2024-05-09T08:38:31.617Z,3.65
2024-05-09T08:40:59.691Z,3.38
2024-05-09T08:43:28.886Z,3.00
2024-05-09T08:45:58.360Z,3.03
2024-05-09T08:48:27.292Z,3.13
2024-05-09T08:50:55.658Z,2.80
2024-05-09T08:53:23.596Z,3.03
2024-05-09T08:55:54.378Z,2.67
2024-05-09T08:58:22.710Z,3.08
2024-05-09T09:00:51.506Z,2.88
2024-05-09T09:03:20.254Z,2.83
2024-05-09T09:05:59.459Z,3.03
2024-05-09T09:08:27.761Z,3.13
2024-05-09T09:11:01.844Z,3.30
2024-05-09T09:13:29.692Z,2.70
2024-05-09T09:15:59.516Z,3.20
2024-05-09T09:18:28.877Z,3.08
2024-05-09T09:20:57.346Z,3.13
2024-05-09T09:23:28.350Z,3.28
2024-05-09T09:26:02.562Z,3.00
2024-05-09T09:28:30.631Z,2.63
2024-05-09T09:31:05.369Z,3.72
2024-05-09T09:33:36.474Z,2.97
2024-05-09T09:36:07.499Z,3.05
2024-05-09T09:38:38.200Z,2.55
2024-05-09T09:41:08.593Z,3.50
2024-05-09T09:43:37.436Z,3.03
2024-05-09T09:46:09.632Z,3.17
2024-05-09T09:48:41.498Z,2.55
2024-05-09T09:51:10.181Z,3.15
2024-05-09T09:53:39.150Z,2.83
2024-05-09T09:56:08.856Z,2.95
2024-05-09T09:58:39.467Z,2.92
2024-05-09T10:01:07.470Z,2.55
2024-05-09T10:03:36.013Z,2.85
2024-05-09T10:06:05.067Z,2.78
2024-05-09T10:08:33.082Z,2.83
2024-05-09T10:11:05.253Z,2.97
2024-05-09T10:13:36.489Z,2.65
2024-05-09T10:16:12.327Z,2.90
2024-05-09T10:18:41.906Z,2.45
2024-05-09T10:21:46.790Z,3.40
2024-05-09T10:24:19.260Z,3.30
2024-05-09T10:26:55.802Z,2.78
2024-05-09T10:29:26.761Z,3.08
2024-05-09T10:31:54.696Z,3.00
2024-05-09T10:34:24.557Z,3.13
2024-05-09T10:36:56.170Z,2.65
2024-05-09T10:39:25.944Z,2.53
2024-05-09T10:41:53.867Z,2.72
2024-05-09T10:44:22.850Z,2.50
2024-05-09T10:46:51.108Z,2.75
2024-05-09T10:49:19.283Z,2.50
2024-05-09T10:51:48.753Z,2.72
2024-05-09T10:54:16.734Z,2.80
2024-05-09T10:56:48.130Z,3.05
2024-05-09T10:59:17.482Z,3.07
2024-05-09T11:01:45.581Z,3.22
2024-05-09T11:04:15.027Z,3.00
2024-05-09T11:06:43.279Z,2.80
2024-05-09T11:09:11.676Z,2.80
2024-05-09T11:11:39.665Z,2.70
2024-05-09T11:14:14.316Z,2.40
2024-05-09T11:16:42.207Z,3.03
2024-05-09T11:19:15.086Z,2.95
2024-05-09T11:21:43.262Z,3.03
2024-05-09T11:24:11.690Z,2.60
2024-05-09T11:26:40.117Z,2.53
2024-05-09T11:29:07.947Z,2.65
2024-05-09T11:31:46.998Z,2.60
2024-05-09T11:34:16.413Z,2.20
2024-05-09T11:36:44.390Z,2.33
2024-05-09T11:39:12.583Z,2.80
2024-05-09T11:41:40.364Z,2.60
2024-05-09T11:44:08.275Z,2.72
2024-05-09T11:46:36.279Z,2.85
2024-05-09T11:49:04.557Z,2.85
2024-05-09T11:51:32.494Z,2.92
2024-05-09T11:54:00.389Z,2.63
2024-05-09T11:56:28.314Z,2.30
2024-05-09T11:58:56.215Z,2.90
2024-05-09T12:01:27.565Z,2.50
2024-05-09T12:03:56.483Z,2.20
2024-05-09T12:06:24.745Z,2.13
2024-05-09T12:08:52.935Z,2.47
2024-05-09T12:11:20.770Z,3.20
2024-05-09T12:13:48.779Z,3.08
2024-05-09T12:16:16.990Z,2.92
2024-05-09T12:18:45.080Z,2.60
2024-05-09T12:21:17.346Z,2.88
2024-05-09T12:23:45.527Z,2.70
2024-05-09T12:26:13.493Z,2.58
2024-05-09T12:28:41.350Z,3.05
2024-05-09T12:31:09.528Z,2.90
2024-05-09T12:33:37.517Z,2.35
2024-05-09T12:36:05.528Z,2.83
2024-05-09T12:38:33.394Z,2.35
2024-05-09T12:41:01.356Z,2.55
2024-05-09T12:43:29.311Z,2.60
2024-05-09T12:45:57.716Z,2.38
2024-05-09T12:48:25.920Z,2.63
2024-05-09T12:50:55.338Z,2.45
2024-05-09T12:53:23.246Z,2.90
2024-05-09T12:55:56.915Z,2.60
2024-05-09T12:58:28.241Z,2.85
2024-05-09T13:00:56.417Z,2.38
2024-05-09T13:03:24.592Z,2.60
2024-05-09T13:05:52.949Z,2.45
2024-05-09T13:08:21.538Z,2.67
2024-05-09T13:10:50.545Z,2.42
2024-05-09T13:13:18.682Z,2.42
2024-05-09T13:15:46.667Z,2.47
2024-05-09T13:18:14.645Z,2.35
2024-05-09T13:20:42.796Z,2.33
2024-05-09T13:23:10.917Z,2.65
2024-05-09T13:25:38.762Z,2.70
2024-05-09T13:28:08.090Z,2.70
2024-05-09T13:30:40.691Z,2.75
2024-05-09T13:33:11.936Z,2.50
2024-05-09T13:35:45.712Z,2.80
2024-05-09T13:38:17.926Z,2.55
2024-05-09T13:40:45.971Z,2.65
2024-05-09T13:43:14.412Z,2.63
2024-05-09T13:45:42.439Z,2.63
2024-05-09T13:48:10.831Z,2.72
2024-05-09T13:50:39.617Z,2.53
2024-05-09T13:53:08.915Z,2.40
2024-05-09T13:55:39.370Z,2.50
2024-05-09T13:58:08.638Z,2.10
2024-05-09T14:00:45.943Z,2.40
2024-05-09T14:03:19.479Z,2.38
2024-05-09T14:05:50.401Z,2.50
2024-05-09T14:08:20.427Z,2.63
2024-05-09T14:10:49.615Z,2.20
2024-05-09T14:13:17.840Z,2.17
2024-05-09T14:15:47.581Z,2.35
2024-05-09T14:18:15.615Z,2.47
2024-05-09T14:20:43.973Z,2.30
2024-05-09T14:23:12.036Z,2.15
2024-05-09T14:25:42.470Z,1.85
2024-05-09T14:28:13.069Z,2.10
2024-05-09T14:30:42.213Z,2.30
2024-05-09T14:33:10.732Z,2.55
2024-05-09T14:35:39.366Z,2.00
2024-05-09T14:38:09.149Z,2.35
2024-05-09T14:40:42.447Z,2.45
2024-05-09T14:43:16.196Z,2.78
2024-05-09T14:45:45.193Z,2.47
2024-05-09T14:48:15.787Z,2.35
2024-05-09T14:50:44.350Z,2.40
2024-05-09T14:53:14.015Z,2.50
2024-05-09T14:55:43.467Z,2.65
2024-05-09T14:58:13.333Z,2.55
2024-05-09T15:00:46.723Z,2.28
2024-05-09T15:03:22.001Z,2.60
2024-05-09T15:05:51.672Z,2.17
2024-05-09T15:08:20.668Z,2.20
2024-05-09T15:10:50.354Z,2.35
2024-05-09T15:13:19.847Z,1.98
2024-05-09T15:15:48.329Z,2.42
2024-05-09T15:18:16.947Z,2.20
2024-05-09T15:20:45.745Z,2.10
2024-05-09T15:23:13.933Z,2.25
2024-05-09T15:25:41.920Z,2.47
2024-05-09T15:28:09.959Z,2.35
2024-05-09T15:30:38.237Z,2.25
2024-05-09T15:33:08.249Z,2.20
2024-05-09T15:35:36.616Z,2.53
2024-05-09T15:38:23.374Z,2.47
2024-05-09T15:41:11.980Z,2.10
2024-05-09T15:43:40.084Z,2.10
2024-05-09T15:46:08.634Z,2.20
2024-05-09T15:48:37.801Z,2.10
2024-05-09T15:51:06.683Z,1.80
2024-05-09T15:53:34.722Z,2.17
2024-05-09T15:56:02.921Z,2.35
2024-05-09T15:58:30.843Z,2.47
2024-05-09T16:00:58.933Z,2.40
2024-05-09T16:03:27.383Z,2.10
2024-05-09T16:05:57.866Z,2.50
2024-05-09T16:08:25.764Z,2.40
2024-05-09T16:10:54.272Z,1.95
2024-05-09T16:13:22.472Z,2.13
2024-05-09T16:15:50.809Z,2.10
2024-05-09T16:18:19.068Z,2.20
2024-05-09T16:20:49.485Z,2.33
2024-05-09T16:23:18.681Z,1.95
2024-05-09T16:25:48.609Z,2.10
2024-05-09T16:28:17.401Z,2.20
2024-05-09T16:30:45.448Z,2.17
2024-05-09T16:33:13.590Z,2.10
2024-05-09T16:35:41.883Z,2.20
2024-05-09T16:38:10.107Z,2.28
2024-05-09T16:40:40.611Z,2.47
2024-05-09T16:43:13.560Z,2.08
2024-05-09T16:45:45.083Z,1.95
2024-05-09T16:48:14.563Z,2.08
2024-05-09T16:50:42.674Z,2.10
2024-05-09T16:53:10.924Z,2.20
2024-05-09T16:55:39.083Z,2.55
2024-05-09T16:58:08.673Z,3.20
2024-05-09T17:00:41.863Z,2.70
2024-05-09T17:03:15.094Z,2.33
2024-05-09T17:05:44.219Z,1.85
2024-05-09T17:08:12.705Z,2.90
2024-05-09T17:10:40.884Z,2.88
2024-05-09T17:13:08.785Z,2.47
2024-05-09T17:15:37.946Z,2.00
2024-05-09T17:18:07.618Z,2.33
2024-05-09T17:20:37.708Z,2.28
2024-05-09T17:23:13.976Z,2.17
2024-05-09T17:25:42.550Z,2.40
2024-05-09T17:28:11.377Z,2.10
2024-05-09T17:30:41.181Z,2.33
2024-05-09T17:33:11.631Z,2.40
2024-05-09T17:35:40.774Z,2.50
2024-05-09T17:38:09.203Z,2.65
2024-05-09T17:40:38.594Z,2.30
2024-05-09T17:43:10.293Z,2.15
2024-05-09T17:45:40.992Z,2.35
2024-05-09T17:48:11.019Z,2.53
2024-05-09T17:50:41.237Z,2.50
2024-05-09T17:53:11.066Z,2.63
2024-05-09T17:55:39.559Z,2.30
2024-05-09T17:58:07.897Z,2.33
2024-05-09T18:00:39.716Z,2.03
2024-05-09T18:03:12.530Z,2.63
2024-05-09T18:05:42.715Z,2.15
2024-05-09T18:08:11.626Z,2.50
2024-05-09T18:10:41.476Z,2.72
2024-05-09T18:13:10.279Z,2.63
2024-05-09T18:15:39.398Z,2.53
2024-05-09T18:18:08.284Z,2.55
2024-05-09T18:20:43.010Z,2.22
2024-05-09T18:23:16.757Z,2.60
2024-05-09T18:25:46.988Z,2.67
2024-05-09T18:28:16.457Z,2.63
2024-05-09T18:30:45.013Z,2.47
2024-05-09T18:33:13.417Z,2.83
2024-05-09T18:35:45.663Z,2.38
2024-05-09T18:38:13.957Z,2.97
2024-05-09T18:40:43.951Z,2.40
2024-05-09T18:43:14.205Z,2.35
2024-05-09T18:45:42.234Z,2.97
2024-05-09T18:48:10.749Z,2.30
2024-05-09T18:50:41.013Z,2.28
2024-05-09T18:53:12.368Z,2.65
2024-05-09T18:55:42.369Z,2.60
2024-05-09T19:25:24.809Z,2.42
2024-05-09T19:27:52.768Z,2.33
2024-05-09T19:30:29.920Z,2.83
2024-05-09T19:33:06.804Z,2.47
2024-05-09T19:35:34.842Z,3.10
2024-05-09T19:38:03.220Z,3.10
2024-05-09T19:40:33.315Z,2.70
2024-05-09T19:43:03.668Z,2.90
2024-05-09T19:45:36.156Z,3.00
2024-05-09T19:48:05.938Z,2.50
2024-05-09T19:50:41.422Z,2.50
2024-05-09T19:53:13.350Z,2.63
2024-05-09T19:55:42.075Z,2.58
2024-05-09T19:58:11.548Z,2.75
2024-05-09T20:00:42.669Z,2.78
2024-05-09T20:03:13.661Z,2.50
2024-05-09T20:05:45.384Z,2.40
2024-05-09T20:08:14.003Z,2.55
2024-05-09T20:10:41.901Z,2.55
2024-05-09T20:13:09.872Z,2.90
2024-05-09T20:15:38.344Z,2.33
2024-05-09T20:18:07.323Z,3.00
2024-05-09T20:20:40.215Z,3.50
2024-05-09T20:23:11.691Z,2.83
2024-05-09T20:25:40.261Z,2.28
2024-05-09T20:28:08.404Z,2.47
2024-05-09T20:30:37.080Z,2.95
2024-05-09T20:33:08.056Z,2.92
2024-05-09T20:35:37.323Z,2.65
2024-05-09T20:38:05.613Z,2.90
2024-05-09T20:40:37.667Z,3.17
2024-05-09T20:43:10.347Z,3.33
2024-05-09T20:45:39.746Z,2.72
2024-05-09T20:48:09.234Z,3.25
2024-05-09T20:50:40.831Z,2.90
2024-05-09T20:53:15.532Z,2.67
2024-05-09T20:55:45.270Z,2.83
2024-05-09T20:58:13.932Z,2.90
2024-05-09T21:00:44.839Z,2.88
2024-05-09T21:03:17.023Z,2.63
2024-05-09T21:05:46.051Z,3.13
2024-05-09T21:08:14.272Z,3.00
2024-05-09T21:10:42.608Z,3.00
2024-05-09T21:13:10.949Z,2.63
2024-05-09T21:15:38.895Z,2.83
2024-05-09T21:18:07.122Z,3.35
2024-05-09T21:20:35.443Z,2.95
2024-05-09T21:23:04.097Z,2.90
2024-05-09T21:25:32.439Z,2.60
2024-05-09T21:28:01.035Z,2.60
2024-05-09T21:30:38.529Z,3.00
2024-05-09T21:33:12.441Z,2.55
2024-05-09T21:35:42.898Z,2.45
2024-05-09T21:38:11.121Z,2.00
2024-05-09T21:40:39.247Z,2.60
2024-05-09T21:43:10.394Z,2.58
2024-05-09T21:45:38.468Z,2.65
2024-05-09T21:48:07.209Z,2.55
2024-05-09T21:50:40.145Z,2.88
2024-05-09T21:53:13.664Z,2.47
2024-05-09T21:55:43.173Z,2.67
2024-05-09T21:58:12.542Z,2.80
2024-05-09T22:00:43.040Z,2.65
2024-05-09T22:03:12.020Z,2.58
2024-05-09T22:05:44.133Z,2.63
2024-05-09T22:08:12.370Z,2.35
2024-05-09T22:10:40.240Z,2.58
2024-05-09T22:13:09.071Z,2.75
2024-05-09T22:15:40.230Z,2.85
2024-05-09T22:18:10.749Z,2.63
2024-05-09T22:20:46.457Z,2.25
2024-05-09T22:23:16.078Z,2.50
2024-05-09T22:25:44.136Z,2.88
2024-05-09T22:28:15.583Z,2.17
2024-05-09T22:30:46.725Z,2.30
2024-05-09T22:33:15.822Z,2.40
2024-05-09T22:35:43.906Z,2.45
2024-05-09T22:38:12.117Z,2.00
2024-05-09T22:40:47.316Z,2.05
2024-05-09T22:43:23.642Z,2.50
2024-05-09T22:45:56.249Z,2.00
2024-05-09T22:48:25.620Z,2.72
2024-05-09T22:50:54.536Z,2.35
2024-05-09T22:53:26.794Z,1.90
2024-05-09T22:55:54.852Z,2.50
2024-05-09T22:58:24.416Z,1.77
2024-05-09T23:00:52.520Z,1.83
2024-05-09T23:03:22.125Z,1.95
2024-05-09T23:05:50.596Z,2.40
2024-05-09T23:08:18.478Z,1.80
2024-05-09T23:10:46.459Z,2.10
2024-05-09T23:13:14.476Z,2.40
2024-05-09T23:15:42.767Z,2.05
2024-05-09T23:18:10.815Z,2.50
2024-05-09T23:20:40.050Z,1.85
2024-05-09T23:23:10.529Z,1.67
2024-05-09T23:25:41.572Z,2.50
2024-05-09T23:28:10.190Z,1.85
2024-05-09T23:30:40.598Z,2.17
2024-05-09T23:33:14.134Z,2.40
2024-05-09T23:35:44.555Z,1.80
2024-05-09T23:38:13.328Z,2.88
2024-05-09T23:40:42.812Z,2.17
2024-05-09T23:43:12.598Z,2.15
2024-05-09T23:45:42.402Z,2.17
2024-05-09T23:48:11.458Z,2.17
2024-05-09T23:50:40.572Z,2.13
2024-05-09T23:53:10.388Z,3.05
2024-05-09T23:55:39.166Z,2.55
2024-05-09T23:58:08.369Z,2.33
